New Market, Pennsylvania
Current Conditions -  °F | °C
As of 8:56 PM on Saturday 25 Oct 2014 (Local Time) from KCXY Reporting Station
Clear Clear  
Wind Chill: 61°   Ceiling: Unl
Heat Index: 61°   Visibility: 10mi
Dew Point: 47°   Wind: 5mph
Humidity: 60%   Direction: 270°W
Pressure: 29.67"   Gusts: NA
Location:  40.2034°N, 76.87°W
Report Text: KCXY 260056Z AUTO 27004KT 10SM CLR 16/08 A2967 RMK AO2 SLP048 T01610083
Loading
Personal Weather Stations






























Interactive Weather Map
Tropical Storm Tracking
New forecast layout! Learn more

10-Day Weather Forecast

Advertisements
Track Severe Weather on mobile